Lough Fea, United Kingdom
Current Conditions -  °F | °C
As of 3:50 AM on Friday 31 Oct 2014 (Local Time) from EGAA Reporting Station
Overcast Overcast  
Wind Chill: 59°   Ceiling: 1100
Heat Index: 59°   Visibility: 6mi
Dew Point: 55°   Wind: 8mph
Humidity: 88%   Direction: 180°S
Pressure: 29.74"   Gusts: NA
Location:  54.72°N, 6.82°W
Report Text: EGAA 310350Z AUTO 18007KT 150V210 9999 BKN011/// BKN015/// OVC021/// 15/13 Q1007
Loading
Personal Weather Stations






























Interactive Weather Map
Tropical Storm Tracking
New forecast layout! Learn more

10-Day Weather Forecast

Advertisements
Track Severe Weather on mobile